createdAt,value
2023-01-31T00:01:45.259Z,97827.72
2023-01-31T00:04:17.174Z,97823.97
2023-01-31T00:06:51.198Z,97828.37
2023-01-31T00:09:23.747Z,97834.42
2023-01-31T00:11:55.827Z,97829.82
2023-01-31T00:14:28.000Z,97828.37
2023-01-31T00:17:00.411Z,97832.75
2023-01-31T00:19:32.576Z,97832.97
2023-01-31T00:22:04.835Z,97824.09
2023-01-31T00:24:37.719Z,97826.05
2023-01-31T00:27:09.884Z,97829.35
2023-01-31T00:29:42.068Z,97824.38
2023-01-31T00:32:14.323Z,97832.12
2023-01-31T00:34:46.394Z,97832.19
2023-01-31T00:37:18.512Z,97834.02
2023-01-31T00:39:50.566Z,97829.67
2023-01-31T00:42:22.885Z,97830.39
2023-01-31T00:44:54.936Z,97830.45
2023-01-31T00:47:28.503Z,97836.37
2023-01-31T00:50:00.782Z,97843.20
2023-01-31T00:52:33.647Z,97843.86
2023-01-31T00:55:05.969Z,97846.44
2023-01-31T00:57:37.994Z,97847.20
2023-01-31T01:00:10.678Z,97845.41
2023-01-31T01:02:42.690Z,97843.70
2023-01-31T01:05:14.643Z,97850.56
2023-01-31T01:07:46.573Z,97845.17
2023-01-31T01:10:19.060Z,97852.17
2023-01-31T01:12:51.047Z,97852.92
2023-01-31T01:15:23.385Z,97851.69
2023-01-31T01:17:56.812Z,97855.44
2023-01-31T01:20:29.113Z,97856.22
2023-01-31T01:23:01.695Z,97855.25
2023-01-31T01:25:36.790Z,97850.21
2023-01-31T01:28:08.958Z,97856.98
2023-01-31T01:30:41.137Z,97851.06
2023-01-31T01:33:13.126Z,97861.39
2023-01-31T01:35:44.982Z,97854.53
2023-01-31T01:38:17.199Z,97852.73
2023-01-31T01:40:49.985Z,97852.86
2023-01-31T01:43:22.049Z,97864.84
2023-01-31T01:45:54.750Z,97859.56
2023-01-31T01:48:29.200Z,97862.48
2023-01-31T01:51:02.891Z,97865.51
2023-01-31T01:53:38.809Z,97863.30
2023-01-31T01:56:14.633Z,97857.11
2023-01-31T01:59:04.557Z,97852.98
2023-01-31T02:01:39.221Z,97853.14
2023-01-31T02:04:15.707Z,97861.64
2023-01-31T02:06:48.583Z,97850.47
2023-01-31T02:09:50.285Z,97844.48
2023-01-31T02:12:23.436Z,97846.16
2023-01-31T02:14:56.076Z,97847.82
2023-01-31T02:17:29.273Z,97849.65
2023-01-31T02:20:25.720Z,97846.28
2023-01-31T02:23:12.250Z,97842.03
2023-01-31T02:25:56.161Z,97841.05
2023-01-31T02:28:48.983Z,97844.36
2023-01-31T02:31:45.083Z,97839.33
2023-01-31T02:34:27.158Z,97846.03
2023-01-31T02:37:02.889Z,97837.66
2023-01-31T02:39:44.513Z,97836.52
2023-01-31T02:42:26.176Z,97834.79
2023-01-31T02:45:10.392Z,97841.68
2023-01-31T02:47:46.535Z,97839.89
2023-01-31T02:50:34.313Z,97847.63
2023-01-31T02:53:12.050Z,97848.48
2023-01-31T02:56:17.368Z,97844.20
2023-01-31T02:58:52.743Z,97843.38
2023-01-31T03:01:29.215Z,97856.06
2023-01-31T03:04:06.673Z,97848.39
2023-01-31T03:06:41.599Z,97850.84
2023-01-31T03:09:25.168Z,97854.27
2023-01-31T03:12:18.207Z,97850.77
2023-01-31T03:15:02.291Z,97851.63
2023-01-31T03:17:46.027Z,97853.42
2023-01-31T03:20:29.691Z,97850.91
2023-01-31T03:23:07.333Z,97855.19
2023-01-31T03:25:40.938Z,97861.78
2023-01-31T03:28:16.443Z,97874.01
2023-01-31T03:31:03.781Z,97870.45
2023-01-31T03:33:41.891Z,97870.38
2023-01-31T03:36:17.106Z,97871.23
2023-01-31T03:39:11.368Z,97876.33
2023-01-31T03:42:06.031Z,97878.12
2023-01-31T03:44:39.266Z,97878.00
2023-01-31T03:47:22.276Z,97873.89
2023-01-31T03:49:58.609Z,97875.13
2023-01-31T03:52:36.685Z,97879.38
2023-01-31T03:55:15.878Z,97881.20
2023-01-31T03:57:51.101Z,97872.67
2023-01-31T04:00:38.653Z,97876.80
2023-01-31T04:03:19.936Z,97876.05
2023-01-31T04:05:52.665Z,97876.17
2023-01-31T04:08:26.163Z,97884.54
2023-01-31T04:11:01.637Z,97884.54
2023-01-31T04:13:34.171Z,97890.55
2023-01-31T04:16:06.980Z,97886.93
2023-01-31T04:18:39.553Z,97891.25
2023-01-31T04:21:12.091Z,97898.80
2023-01-31T04:23:44.878Z,97898.80
2023-01-31T04:26:17.322Z,97897.89
2023-01-31T04:28:51.454Z,97896.09
2023-01-31T04:31:24.056Z,97886.58
2023-01-31T04:33:57.834Z,97900.47
2023-01-31T04:36:29.885Z,97898.67
2023-01-31T04:39:01.690Z,97906.69
2023-01-31T04:41:35.111Z,97908.02
2023-01-31T04:44:08.113Z,97913.19
2023-01-31T04:46:41.644Z,97912.40
2023-01-31T04:49:15.780Z,97915.70
2023-01-31T04:51:49.309Z,97909.06
2023-01-31T04:54:21.928Z,97916.69
2023-01-31T04:56:55.171Z,97928.69
2023-01-31T04:59:27.623Z,97924.50
2023-01-31T05:01:59.850Z,97914.16
2023-01-31T05:04:32.948Z,97914.86
2023-01-31T05:07:06.013Z,97920.02
2023-01-31T05:09:39.306Z,97915.77
2023-01-31T05:12:13.202Z,97912.89
2023-01-31T05:14:46.419Z,97918.00
2023-01-31T05:17:20.377Z,97924.20
2023-01-31T05:19:52.940Z,97930.22
2023-01-31T05:22:25.622Z,97926.73
2023-01-31T05:24:58.646Z,97937.05
2023-01-31T05:27:33.614Z,97930.09
2023-01-31T05:30:07.474Z,97941.11
2023-01-31T05:32:42.446Z,97932.67
2023-01-31T05:35:14.974Z,97938.47
2023-01-31T05:37:47.210Z,97942.66
2023-01-31T05:40:19.991Z,97943.50
2023-01-31T05:42:57.482Z,97947.12
2023-01-31T05:45:31.481Z,97940.14
2023-01-31T05:48:04.093Z,97937.62
2023-01-31T05:50:36.599Z,97942.03
2023-01-31T05:53:15.105Z,97942.84
2023-01-31T05:55:49.990Z,97941.97
2023-01-31T05:58:22.905Z,97946.16
2023-01-31T06:00:57.311Z,97948.51
2023-01-31T06:03:31.045Z,97952.86
2023-01-31T06:06:05.026Z,97948.58
2023-01-31T06:08:37.790Z,97952.01
2023-01-31T06:11:14.922Z,97956.27
2023-01-31T06:13:49.332Z,97962.91
2023-01-31T06:16:22.808Z,97961.17
2023-01-31T06:18:56.056Z,97971.44
2023-01-31T06:21:29.125Z,97970.52
2023-01-31T06:24:02.934Z,97975.63
2023-01-31T06:26:35.767Z,97974.59
2023-01-31T06:29:09.015Z,97982.34
2023-01-31T06:31:41.166Z,97984.00
2023-01-31T06:34:14.601Z,97979.52
2023-01-31T06:36:46.932Z,97982.05
2023-01-31T06:39:19.475Z,97984.56
2023-01-31T06:41:51.769Z,97989.60
2023-01-31T06:44:26.461Z,97990.36
2023-01-31T06:46:57.783Z,97993.73
2023-01-31T06:49:30.489Z,98000.69
2023-01-31T06:52:03.132Z,98006.42
2023-01-31T06:54:35.734Z,98009.86
2023-01-31T06:57:08.758Z,98012.25
2023-01-31T06:59:41.395Z,98010.55
2023-01-31T07:02:14.502Z,98008.74
2023-01-31T07:04:47.322Z,98013.69
2023-01-31T07:07:20.239Z,98011.95
2023-01-31T07:09:52.528Z,98014.60
2023-01-31T07:12:24.531Z,98014.67
2023-01-31T07:14:59.737Z,98018.11
2023-01-31T07:17:33.753Z,98022.36
2023-01-31T07:20:06.863Z,98019.84
2023-01-31T07:22:39.492Z,98021.38
2023-01-31T07:25:11.703Z,98018.79
2023-01-31T07:27:44.342Z,98033.48
2023-01-31T07:30:17.725Z,98027.04
2023-01-31T07:32:50.378Z,98037.52
2023-01-31T07:35:23.357Z,98044.22
2023-01-31T07:37:56.429Z,98044.22
2023-01-31T07:40:28.612Z,98040.88
2023-01-31T07:43:01.718Z,98046.81
2023-01-31T07:45:35.925Z,98046.74
2023-01-31T07:48:09.112Z,98054.02
2023-01-31T07:50:41.722Z,98049.27
2023-01-31T07:53:14.061Z,98054.44
2023-01-31T07:55:49.846Z,98062.98
2023-01-31T07:58:22.316Z,98050.80
2023-01-31T08:01:13.413Z,98054.17
2023-01-31T08:03:45.921Z,98058.36
2023-01-31T08:06:18.575Z,98060.88
2023-01-31T08:08:50.698Z,98064.09
2023-01-31T08:11:23.939Z,98068.22
2023-01-31T08:13:56.243Z,98059.11
2023-01-31T08:16:29.896Z,98066.25
2023-01-31T08:19:02.393Z,98070.44
2023-01-31T08:21:34.809Z,98081.34
2023-01-31T08:24:07.337Z,98078.75
2023-01-31T08:26:39.765Z,98084.84
2023-01-31T08:29:12.880Z,98088.97
2023-01-31T08:31:45.463Z,98091.42
2023-01-31T08:34:18.967Z,98098.75
2023-01-31T08:36:51.580Z,98101.69
2023-01-31T08:39:24.334Z,98102.98
2023-01-31T08:41:57.400Z,98095.72
2023-01-31T08:44:30.402Z,98089.63
2023-01-31T08:47:03.172Z,98091.16
2023-01-31T08:49:37.480Z,98098.18
2023-01-31T08:52:10.367Z,98102.44
2023-01-31T08:54:42.557Z,98098.59
2023-01-31T08:57:14.908Z,98095.69
2023-01-31T08:59:47.122Z,98086.12
2023-01-31T09:02:19.630Z,98089.25
2023-01-31T09:04:51.881Z,98089.01
2023-01-31T09:07:24.156Z,98085.28
2023-01-31T09:09:56.234Z,98090.25
2023-01-31T09:12:28.909Z,98084.90
2023-01-31T09:15:01.101Z,98085.54
2023-01-31T09:17:34.381Z,98085.47
2023-01-31T09:20:08.214Z,98092.17
2023-01-31T09:22:40.866Z,98095.66
2023-01-31T09:25:13.615Z,98085.15
2023-01-31T09:27:46.759Z,98082.02
2023-01-31T09:30:19.512Z,98080.21
2023-01-31T09:32:51.535Z,98082.09
2023-01-31T09:35:24.025Z,98080.36
2023-01-31T09:37:56.089Z,98079.36
2023-01-31T09:40:32.017Z,98069.92
2023-01-31T09:43:05.298Z,98065.34
2023-01-31T09:45:40.693Z,98074.63
2023-01-31T09:48:18.571Z,98076.46
2023-01-31T09:50:56.709Z,98087.17
2023-01-31T09:53:34.963Z,98091.47
2023-01-31T09:56:12.675Z,98089.77
2023-01-31T09:58:50.246Z,98086.65
2023-01-31T10:01:28.201Z,98080.87
2023-01-31T10:04:11.029Z,98079.20
2023-01-31T10:06:47.241Z,98079.80
2023-01-31T10:09:40.912Z,98084.50
2023-01-31T10:12:21.962Z,98090.98
2023-01-31T10:14:57.496Z,98095.92
2023-01-31T10:17:45.115Z,98088.25
2023-01-31T10:20:35.450Z,98090.06
2023-01-31T10:23:19.217Z,98092.25
2023-01-31T10:26:02.882Z,98093.33
2023-01-31T10:28:38.088Z,98102.55
2023-01-31T10:31:28.176Z,98106.66
2023-01-31T10:34:07.238Z,98109.33
2023-01-31T10:36:56.800Z,98117.11
2023-01-31T10:39:34.873Z,98111.33
2023-01-31T10:42:15.809Z,98122.55
2023-01-31T10:45:14.750Z,98125.00
2023-01-31T10:47:58.002Z,98118.52
2023-01-31T10:50:33.034Z,98116.14
2023-01-31T10:53:39.811Z,98108.14
2023-01-31T10:56:23.946Z,98104.55
2023-01-31T10:58:59.099Z,98119.81
2023-01-31T11:01:32.126Z,98123.89
2023-01-31T11:04:06.072Z,98117.11
2023-01-31T11:06:38.424Z,98114.44
2023-01-31T11:09:12.325Z,98117.63
2023-01-31T11:12:01.860Z,98111.55
2023-01-31T11:14:34.302Z,98115.03
2023-01-31T11:17:13.193Z,98116.73
2023-01-31T11:19:54.665Z,98119.33
2023-01-31T11:22:28.950Z,98125.59
2023-01-31T11:25:07.277Z,98117.81
2023-01-31T11:27:41.648Z,98112.55
2023-01-31T11:30:28.626Z,98114.37
2023-01-31T11:33:00.886Z,98116.03
2023-01-31T11:35:35.490Z,98110.70
2023-01-31T11:38:13.412Z,98114.88
2023-01-31T11:40:45.817Z,98106.17
2023-01-31T11:43:29.499Z,98110.21
2023-01-31T11:46:03.791Z,98104.13
2023-01-31T11:48:45.370Z,98112.66
2023-01-31T11:51:31.075Z,98117.92
2023-01-31T11:54:06.190Z,98113.58
2023-01-31T11:56:39.531Z,98123.11
2023-01-31T11:59:15.268Z,98106.80
2023-01-31T12:01:53.737Z,98117.84
2023-01-31T12:04:28.707Z,98117.25
2023-01-31T12:07:11.682Z,98117.48
2023-01-31T12:09:45.677Z,98124.26
2023-01-31T12:12:26.608Z,98129.00
2023-01-31T12:15:05.089Z,98131.86
2023-01-31T12:17:39.169Z,98140.85
2023-01-31T12:20:33.605Z,98135.74
2023-01-31T12:23:29.606Z,98143.38
2023-01-31T12:26:05.728Z,98148.11
2023-01-31T12:28:40.654Z,98149.92
2023-01-31T12:31:16.057Z,98156.03
2023-01-31T12:34:09.475Z,98145.59
2023-01-31T12:36:44.953Z,98142.33
2023-01-31T12:39:38.415Z,98145.06
2023-01-31T12:42:41.869Z,98145.20
2023-01-31T12:45:20.171Z,98136.36
2023-01-31T12:48:26.785Z,98143.22
2023-01-31T12:51:16.720Z,98132.77
2023-01-31T12:53:55.091Z,98132.55
2023-01-31T12:56:45.505Z,98136.95
2023-01-31T12:59:49.066Z,98135.22
2023-01-31T13:02:42.011Z,98149.03
2023-01-31T13:05:32.165Z,98159.48
2023-01-31T13:08:11.776Z,98155.22
2023-01-31T13:10:46.785Z,98152.70
2023-01-31T13:13:27.635Z,98152.09
2023-01-31T13:16:15.356Z,98151.24
2023-01-31T13:18:50.739Z,98145.20
2023-01-31T13:21:27.389Z,98149.64
2023-01-31T13:24:02.694Z,98159.41
2023-01-31T13:26:53.059Z,98156.04
2023-01-31T13:29:42.929Z,98156.11
2023-01-31T13:32:20.978Z,98161.55
2023-01-31T13:34:56.018Z,98172.98
2023-01-31T13:37:31.487Z,98182.49
2023-01-31T13:40:21.751Z,98175.85
2023-01-31T13:42:55.540Z,98194.06
2023-01-31T13:45:39.303Z,98198.63
2023-01-31T13:48:26.305Z,98198.42
2023-01-31T13:51:04.678Z,98208.93
2023-01-31T13:53:39.645Z,98218.52
2023-01-31T13:56:14.735Z,98209.20
2023-01-31T13:58:50.364Z,98221.27
2023-01-31T14:01:25.953Z,98220.35
2023-01-31T14:04:18.354Z,98216.09
2023-01-31T14:07:08.379Z,98219.67
2023-01-31T14:09:56.058Z,98221.41
2023-01-31T14:12:34.624Z,98219.67
2023-01-31T14:15:32.101Z,98227.52
2023-01-31T14:18:05.030Z,98225.97
2023-01-31T14:20:38.074Z,98231.09
2023-01-31T14:23:35.970Z,98220.55
2023-01-31T14:26:11.473Z,98229.31
2023-01-31T14:28:45.150Z,98237.95
2023-01-31T14:31:20.689Z,98234.50
2023-01-31T14:33:54.338Z,98236.27
2023-01-31T14:36:29.610Z,98244.73
2023-01-31T14:39:26.027Z,98236.82
2023-01-31T14:42:20.428Z,98240.30
2023-01-31T14:44:53.834Z,98236.65
2023-01-31T14:47:43.519Z,98241.89
2023-01-31T14:50:39.444Z,98236.31
2023-01-31T14:53:41.607Z,98239.72
2023-01-31T14:56:28.707Z,98239.65
2023-01-31T14:59:01.188Z,98239.45
2023-01-31T15:01:36.913Z,98249.74
2023-01-31T15:04:10.721Z,98245.31
2023-01-31T15:06:44.459Z,98262.53
2023-01-31T15:09:26.088Z,98257.52
2023-01-31T15:11:59.583Z,98251.55
2023-01-31T15:14:45.291Z,98249.95
2023-01-31T15:17:34.643Z,98254.99
2023-01-31T15:19:56.735Z,98256.67
2023-01-31T15:22:29.005Z,98264.38
2023-01-31T15:25:04.444Z,98258.34
2023-01-31T15:27:41.278Z,98254.86
2023-01-31T15:30:16.971Z,98254.99
2023-01-31T15:33:11.502Z,98266.05
2023-01-31T15:35:47.282Z,98259.94
2023-01-31T15:38:25.538Z,98258.20
2023-01-31T15:41:23.187Z,98266.77
2023-01-31T15:43:58.163Z,98268.43
2023-01-31T15:46:32.765Z,98264.92
2023-01-31T15:49:06.359Z,98266.59
2023-01-31T15:51:38.471Z,98267.44
2023-01-31T15:54:13.724Z,98268.98
2023-01-31T15:56:46.445Z,98272.48
2023-01-31T15:59:19.977Z,98265.77
2023-01-31T16:01:56.017Z,98275.02
2023-01-31T16:04:29.607Z,98276.89
2023-01-31T16:07:02.270Z,98269.97
2023-01-31T16:09:34.795Z,98273.61
2023-01-31T16:12:07.376Z,98285.86
2023-01-31T16:14:40.786Z,98281.46
2023-01-31T16:17:13.658Z,98292.69
2023-01-31T16:19:47.457Z,98285.69
2023-01-31T16:22:28.063Z,98291.69
2023-01-31T16:25:01.902Z,98289.23
2023-01-31T16:27:36.818Z,98292.03
2023-01-31T16:30:10.672Z,98292.03
2023-01-31T16:32:44.021Z,98295.68
2023-01-31T16:35:28.009Z,98307.59
2023-01-31T16:38:09.307Z,98308.51
2023-01-31T16:40:51.453Z,98309.63
2023-01-31T16:43:33.858Z,98310.34
2023-01-31T16:46:12.486Z,98312.16
2023-01-31T16:48:49.191Z,98311.88
2023-01-31T16:51:28.561Z,98307.66
2023-01-31T16:54:24.639Z,98308.30
2023-01-31T16:57:08.659Z,98299.81
2023-01-31T16:59:43.383Z,98294.63
2023-01-31T17:02:19.260Z,98305.16
2023-01-31T17:04:54.422Z,98310.61
2023-01-31T17:07:33.331Z,98317.57
2023-01-31T17:10:11.718Z,98311.67
2023-01-31T17:12:49.872Z,98312.58
2023-01-31T17:15:23.466Z,98316.09
2023-01-31T17:17:56.866Z,98316.03
2023-01-31T17:20:29.511Z,98318.52
2023-01-31T17:23:03.583Z,98311.67
2023-01-31T17:25:37.984Z,98321.83
2023-01-31T17:28:10.709Z,98324.61
2023-01-31T17:30:46.547Z,98320.91
2023-01-31T17:33:19.113Z,98322.59
2023-01-31T17:35:52.090Z,98316.66
2023-01-31T17:38:24.695Z,98319.31
2023-01-31T17:40:57.015Z,98315.80
2023-01-31T17:43:29.854Z,98315.73
2023-01-31T17:46:01.977Z,98320.98
2023-01-31T17:48:34.159Z,98320.16
2023-01-31T17:51:07.090Z,98322.88
2023-01-31T17:53:49.432Z,98321.28
2023-01-31T17:56:13.800Z,98320.36
2023-01-31T17:58:46.809Z,98321.77
2023-01-31T18:01:18.971Z,98321.21
2023-01-31T18:03:51.134Z,98323.08
2023-01-31T18:06:23.307Z,98335.22
2023-01-31T18:08:55.286Z,98319.73
2023-01-31T18:11:27.533Z,98332.53
2023-01-31T18:14:00.154Z,98317.77
2023-01-31T18:16:32.999Z,98322.03
2023-01-31T18:19:08.136Z,98317.77
2023-01-31T18:21:46.795Z,98320.30
2023-01-31T18:24:13.822Z,98324.75
2023-01-31T18:26:46.520Z,98323.20
2023-01-31T18:29:23.427Z,98321.90
2023-01-31T18:31:58.153Z,98325.48
2023-01-31T18:34:30.919Z,98319.58
2023-01-31T18:37:06.427Z,98328.98
2023-01-31T18:39:38.873Z,98343.06
2023-01-31T18:42:10.836Z,98331.09
2023-01-31T18:44:42.897Z,98339.61
2023-01-31T18:47:16.453Z,98338.56
2023-01-31T18:49:48.844Z,98334.07
2023-01-31T18:52:20.972Z,98333.19
2023-01-31T18:54:54.238Z,98343.39
2023-01-31T18:57:26.558Z,98338.20
2023-01-31T18:59:58.503Z,98346.63
2023-01-31T19:02:31.010Z,98349.84
2023-01-31T19:05:03.094Z,98349.61
2023-01-31T19:07:35.105Z,98361.45
2023-01-31T19:10:07.652Z,98354.66
2023-01-31T19:12:40.030Z,98358.25
2023-01-31T19:15:14.582Z,98357.33
2023-01-31T19:17:46.801Z,98352.20
2023-01-31T19:20:19.117Z,98351.39
2023-01-31T19:22:51.192Z,98356.57
2023-01-31T19:25:26.038Z,98355.66
2023-01-31T19:27:59.771Z,98355.66
2023-01-31T19:30:32.084Z,98353.91
2023-01-31T19:33:04.251Z,98354.73
2023-01-31T19:35:36.295Z,98369.40
2023-01-31T19:38:08.937Z,98366.70
2023-01-31T19:40:41.893Z,98368.55
2023-01-31T19:43:14.584Z,98372.95
2023-01-31T19:45:47.641Z,98374.72
2023-01-31T19:48:19.951Z,98375.64
2023-01-31T19:50:52.377Z,98374.65
2023-01-31T19:53:25.214Z,98380.72
2023-01-31T19:55:57.451Z,98376.39
2023-01-31T19:58:32.771Z,98377.17
2023-01-31T20:01:07.531Z,98379.77
2023-01-31T20:03:39.945Z,98365.82
2023-01-31T20:06:17.599Z,98375.34
2023-01-31T20:08:54.026Z,98370.16
2023-01-31T20:11:28.094Z,98373.59
2023-01-31T20:14:00.624Z,98376.13
2023-01-31T20:16:33.080Z,98381.38
2023-01-31T20:19:07.204Z,98384.86
2023-01-31T20:21:39.834Z,98371.14
2023-01-31T20:24:13.631Z,98379.77
2023-01-31T20:26:49.021Z,98387.55
2023-01-31T20:29:21.083Z,98384.03
2023-01-31T20:31:53.326Z,98385.84
2023-01-31T20:34:26.985Z,98391.95
2023-01-31T20:36:59.211Z,98392.86
2023-01-31T20:39:31.425Z,98396.50
2023-01-31T20:42:03.480Z,98392.23
2023-01-31T20:44:35.585Z,98393.13
2023-01-31T20:47:08.248Z,98401.82
2023-01-31T20:49:40.292Z,98394.11
2023-01-31T20:52:12.673Z,98393.42
2023-01-31T20:54:44.885Z,98395.31
2023-01-31T20:57:18.921Z,98398.73
2023-01-31T20:59:51.066Z,98404.96
2023-01-31T21:02:23.561Z,98396.37
2023-01-31T21:04:55.692Z,98398.17
2023-01-31T21:07:27.624Z,98394.09
2023-01-31T21:10:00.117Z,98403.70
2023-01-31T21:12:34.052Z,98404.75
2023-01-31T21:15:06.870Z,98404.75
2023-01-31T21:17:40.671Z,98401.37
2023-01-31T21:20:13.923Z,98398.02
2023-01-31T21:22:46.018Z,98403.27
2023-01-31T21:25:18.284Z,98415.36
2023-01-31T21:27:53.136Z,98415.42
2023-01-31T21:30:25.421Z,98413.97
2023-01-31T21:32:57.450Z,98424.45
2023-01-31T21:35:29.856Z,98418.58
2023-01-31T21:38:02.023Z,98429.64
2023-01-31T21:40:34.175Z,98427.23
2023-01-31T21:43:06.320Z,98442.08
2023-01-31T21:45:41.138Z,98437.02
2023-01-31T21:48:32.193Z,98429.25
2023-01-31T21:51:15.351Z,98429.31
2023-01-31T21:53:48.482Z,98435.34
2023-01-31T21:56:23.331Z,98428.48
2023-01-31T21:58:57.321Z,98427.64
2023-01-31T22:01:32.630Z,98429.31
2023-01-31T22:04:04.911Z,98434.55
2023-01-31T22:06:42.739Z,98435.47
2023-01-31T22:09:15.870Z,98432.88
2023-01-31T22:11:48.150Z,98439.73
2023-01-31T22:14:20.850Z,98438.97
2023-01-31T22:16:53.232Z,98438.97
2023-01-31T22:19:25.730Z,98437.30
2023-01-31T22:21:59.468Z,98445.06
2023-01-31T22:24:31.780Z,98447.66
2023-01-31T22:27:04.099Z,98444.09
2023-01-31T22:29:36.291Z,98438.97
2023-01-31T22:32:09.339Z,98437.30
2023-01-31T22:34:43.214Z,98440.77
2023-01-31T22:37:15.267Z,98447.50
2023-01-31T22:39:47.527Z,98446.80
2023-01-31T22:42:19.581Z,98437.41
2023-01-31T22:44:51.643Z,98446.04
2023-01-31T22:47:25.006Z,98449.45
2023-01-31T22:49:57.032Z,98449.39
2023-01-31T22:52:29.905Z,98453.66
2023-01-31T22:55:01.979Z,98454.39
2023-01-31T22:57:34.883Z,98454.23
2023-01-31T23:00:09.594Z,98457.62
2023-01-31T23:02:42.030Z,98461.77
2023-01-31T23:05:14.328Z,98466.82
2023-01-31T23:07:46.669Z,98466.60
2023-01-31T23:10:19.526Z,98464.66
2023-01-31T23:12:52.842Z,98466.08
2023-01-31T23:15:25.058Z,98464.22
2023-01-31T23:17:57.151Z,98466.53
2023-01-31T23:20:29.902Z,98468.93
2023-01-31T23:23:02.073Z,98471.42
2023-01-31T23:25:34.240Z,98472.22
2023-01-31T23:28:06.725Z,98463.53
2023-01-31T23:30:38.944Z,98465.99
2023-01-31T23:33:10.986Z,98459.83
2023-01-31T23:35:43.058Z,98472.72
2023-01-31T23:38:15.258Z,98461.44
2023-01-31T23:40:52.627Z,98466.69
2023-01-31T23:43:25.001Z,98465.87
2023-01-31T23:45:57.049Z,98455.50
2023-01-31T23:48:29.594Z,98456.32
2023-01-31T23:51:05.711Z,98465.70
2023-01-31T23:53:37.810Z,98462.23
2023-01-31T23:56:09.903Z,98460.52
2023-01-31T23:58:41.942Z,98458.78
